createdAt,value
2018-03-22T00:00:44.549Z,9.47
2018-03-22T00:03:13.867Z,10.30
2018-03-22T00:05:42.941Z,9.83
2018-03-22T00:08:11.163Z,10.40
2018-03-22T00:10:40.731Z,10.07
2018-03-22T00:13:09.110Z,10.07
2018-03-22T00:15:37.333Z,10.57
2018-03-22T00:18:05.704Z,9.37
2018-03-22T00:20:36.704Z,9.57
2018-03-22T00:23:05.033Z,9.63
2018-03-22T00:25:34.017Z,9.93
2018-03-22T00:28:02.237Z,9.10
2018-03-22T00:30:30.464Z,9.40
2018-03-22T00:32:59.316Z,9.47
2018-03-22T00:35:27.587Z,9.53
2018-03-22T00:37:55.897Z,9.57
2018-03-22T00:40:24.140Z,9.33
2018-03-22T00:42:53.383Z,10.07
2018-03-22T00:45:21.742Z,9.57
2018-03-22T00:47:50.000Z,9.33
2018-03-22T00:50:19.129Z,9.87
2018-03-22T00:52:48.314Z,10.27
2018-03-22T00:55:16.767Z,10.00
2018-03-22T00:57:45.029Z,10.00
2018-03-22T01:00:13.401Z,8.80
2018-03-22T01:02:41.741Z,9.97
2018-03-22T01:05:10.318Z,9.57
2018-03-22T01:07:38.686Z,9.27
2018-03-22T01:10:07.070Z,9.63
2018-03-22T01:12:35.404Z,9.87
2018-03-22T01:15:09.737Z,8.60
2018-03-22T01:17:56.749Z,9.03
2018-03-22T01:20:31.373Z,9.83
2018-03-22T01:23:12.448Z,9.77
2018-03-22T01:25:40.868Z,10.53
2018-03-22T01:28:25.976Z,10.03
2018-03-22T01:31:12.735Z,9.53
2018-03-22T01:33:45.028Z,9.13
2018-03-22T01:36:19.607Z,10.17
2018-03-22T01:38:50.455Z,9.50
2018-03-22T01:41:24.409Z,9.33
2018-03-22T01:43:57.407Z,10.53
2018-03-22T01:46:27.425Z,10.23
2018-03-22T01:48:57.366Z,9.80
2018-03-22T01:51:27.297Z,10.10
2018-03-22T01:53:57.067Z,10.00
2018-03-22T01:56:25.281Z,10.83
2018-03-22T01:58:54.289Z,10.37
2018-03-22T02:01:22.523Z,10.90
2018-03-22T02:03:50.725Z,10.60
2018-03-22T02:06:19.684Z,10.50
2018-03-22T02:08:47.877Z,10.63
2018-03-22T02:11:16.145Z,10.83
2018-03-22T02:13:44.357Z,10.17
2018-03-22T02:16:13.314Z,11.67
2018-03-22T02:18:41.552Z,11.07
2018-03-22T02:21:11.068Z,10.83
2018-03-22T02:23:39.322Z,11.27
2018-03-22T02:26:08.492Z,11.00
2018-03-22T02:28:36.722Z,11.70
2018-03-22T02:31:06.296Z,10.47
2018-03-22T02:33:34.607Z,11.23
2018-03-22T02:36:02.877Z,11.73
2018-03-22T02:38:31.127Z,10.53
2018-03-22T02:40:59.356Z,10.87
2018-03-22T02:43:27.569Z,10.67
2018-03-22T02:45:56.815Z,10.33
2018-03-22T02:48:26.136Z,10.77
2018-03-22T02:50:54.409Z,10.10
2018-03-22T02:53:23.488Z,10.23
2018-03-22T02:55:52.530Z,11.37
2018-03-22T02:58:20.793Z,10.00
2018-03-22T03:00:49.961Z,11.03
2018-03-22T03:03:18.374Z,10.50
2018-03-22T03:05:47.370Z,9.77
2018-03-22T03:08:16.397Z,10.20
2018-03-22T03:10:45.389Z,10.50
2018-03-22T03:13:14.379Z,10.17
2018-03-22T03:15:42.682Z,10.10
2018-03-22T03:18:11.074Z,10.30
2018-03-22T03:20:39.595Z,9.70
2018-03-22T03:23:08.633Z,9.53
2018-03-22T03:25:37.853Z,9.67
2018-03-22T03:28:06.113Z,10.50
2018-03-22T03:30:34.348Z,9.97
2018-03-22T03:33:02.690Z,10.27
2018-03-22T03:35:31.091Z,10.20
2018-03-22T03:37:59.577Z,10.67
2018-03-22T03:40:27.930Z,11.03
2018-03-22T03:42:56.777Z,10.87
2018-03-22T03:45:25.794Z,11.27
2018-03-22T03:47:54.083Z,10.87
2018-03-22T03:50:22.336Z,11.33
2018-03-22T03:52:50.761Z,10.60
2018-03-22T03:55:19.020Z,11.97
2018-03-22T03:57:47.772Z,12.00
2018-03-22T04:00:17.019Z,11.87
2018-03-22T04:02:45.409Z,11.90
2018-03-22T04:05:13.883Z,11.80
2018-03-22T04:07:42.156Z,12.03
2018-03-22T04:10:10.418Z,12.27
2018-03-22T04:12:38.713Z,11.67
2018-03-22T04:15:06.963Z,11.60
2018-03-22T04:17:35.235Z,12.00
2018-03-22T04:20:03.480Z,12.60
2018-03-22T04:22:32.432Z,13.00
2018-03-22T04:25:01.104Z,11.90
2018-03-22T04:27:29.958Z,13.13
2018-03-22T04:29:59.336Z,12.90
2018-03-22T04:32:27.648Z,13.20
2018-03-22T04:34:55.992Z,13.13
2018-03-22T04:37:25.112Z,13.63
2018-03-22T04:39:54.288Z,13.47
2018-03-22T04:42:23.402Z,14.23
2018-03-22T04:44:52.564Z,14.13
2018-03-22T04:47:20.814Z,14.00
2018-03-22T04:49:49.342Z,14.10
2018-03-22T04:52:18.525Z,13.47
2018-03-22T04:54:46.903Z,13.70
2018-03-22T04:57:15.243Z,14.23
2018-03-22T04:59:44.481Z,13.40
2018-03-22T05:02:13.400Z,14.17
2018-03-22T05:04:41.857Z,14.63
2018-03-22T05:07:10.105Z,15.43
2018-03-22T05:09:39.115Z,14.60
2018-03-22T05:12:07.404Z,14.23
2018-03-22T05:14:35.787Z,15.00
2018-03-22T05:17:04.077Z,15.23
2018-03-22T05:19:32.404Z,15.93
2018-03-22T05:22:01.554Z,15.43
2018-03-22T05:24:29.846Z,15.97
2018-03-22T05:26:58.201Z,15.97
2018-03-22T05:29:26.593Z,18.50
2018-03-22T05:31:55.111Z,18.63
2018-03-22T05:34:23.449Z,19.37
2018-03-22T05:36:51.818Z,18.90
2018-03-22T05:39:20.115Z,19.47
2018-03-22T05:41:48.580Z,19.87
2018-03-22T05:44:16.839Z,20.33
2018-03-22T05:46:45.702Z,20.53
2018-03-22T05:49:13.983Z,21.00
2018-03-22T05:51:42.265Z,21.17
2018-03-22T05:54:11.296Z,20.83
2018-03-22T05:56:40.427Z,22.30
2018-03-22T05:59:08.665Z,21.50
2018-03-22T06:01:36.884Z,23.17
2018-03-22T06:04:05.111Z,23.23
2018-03-22T06:06:33.507Z,21.63
2018-03-22T06:09:01.733Z,21.37
2018-03-22T06:11:30.260Z,22.63
2018-03-22T06:13:58.643Z,21.63
2018-03-22T06:16:26.923Z,22.50
2018-03-22T06:18:55.207Z,21.10
2018-03-22T06:21:23.462Z,21.77
2018-03-22T06:23:51.748Z,20.60
2018-03-22T06:26:19.953Z,22.10
2018-03-22T06:28:48.300Z,21.43
2018-03-22T06:31:16.710Z,22.57
2018-03-22T06:33:45.109Z,20.77
2018-03-22T06:36:13.443Z,20.03
2018-03-22T06:38:42.530Z,19.50
2018-03-22T06:41:10.779Z,20.47
2018-03-22T06:43:39.845Z,20.37
2018-03-22T06:46:08.091Z,18.83
2018-03-22T06:48:37.298Z,17.77
2018-03-22T06:51:06.563Z,17.67
2018-03-22T06:53:35.616Z,18.33
2018-03-22T06:56:04.791Z,17.27
2018-03-22T06:58:33.024Z,16.33
2018-03-22T07:01:01.649Z,15.90
2018-03-22T07:03:30.035Z,16.03
2018-03-22T07:05:58.335Z,15.03
2018-03-22T07:08:26.595Z,15.47
2018-03-22T07:10:54.827Z,15.77
2018-03-22T07:13:23.857Z,15.10
2018-03-22T07:15:52.044Z,14.40
2018-03-22T07:18:20.434Z,14.07
2018-03-22T07:20:50.431Z,14.90
2018-03-22T07:23:19.491Z,13.47
2018-03-22T07:25:47.815Z,13.17
2018-03-22T07:28:16.286Z,13.23
2018-03-22T07:30:44.560Z,13.57
2018-03-22T07:33:12.893Z,13.50
2018-03-22T07:35:41.995Z,13.23
2018-03-22T07:38:10.971Z,13.33
2018-03-22T07:40:40.260Z,12.70
2018-03-22T07:43:14.197Z,13.33
2018-03-22T07:45:42.696Z,14.03
2018-03-22T07:48:11.102Z,13.60
2018-03-22T07:50:39.514Z,13.43
2018-03-22T07:53:07.759Z,13.83
2018-03-22T07:55:36.910Z,14.47
2018-03-22T07:58:06.056Z,14.07
2018-03-22T08:00:34.439Z,13.50
2018-03-22T08:03:02.766Z,14.10
2018-03-22T08:05:31.136Z,13.67
2018-03-22T08:08:00.188Z,13.87
2018-03-22T08:10:29.076Z,13.43
2018-03-22T08:12:57.393Z,14.33
2018-03-22T08:15:25.703Z,13.53
2018-03-22T08:17:54.032Z,13.83
2018-03-22T08:20:22.314Z,15.27
2018-03-22T08:22:50.710Z,14.17
2018-03-22T08:25:19.816Z,13.90
2018-03-22T08:27:48.882Z,12.53
2018-03-22T08:30:17.355Z,14.20
2018-03-22T08:32:45.658Z,12.67
2018-03-22T08:35:14.970Z,12.40
2018-03-22T08:37:43.222Z,13.17
2018-03-22T08:40:11.523Z,14.37
2018-03-22T08:42:39.887Z,14.83
2018-03-22T08:45:08.913Z,15.07
2018-03-22T08:47:38.052Z,14.23
2018-03-22T08:50:06.507Z,14.77
2018-03-22T08:52:34.832Z,15.83
2018-03-22T08:55:03.098Z,14.60
2018-03-22T08:57:32.409Z,14.33
2018-03-22T09:00:00.637Z,16.23
2018-03-22T09:02:29.878Z,14.33
2018-03-22T09:04:58.901Z,13.40
2018-03-22T09:07:27.215Z,13.80
2018-03-22T09:09:55.634Z,15.90
2018-03-22T09:12:23.894Z,14.73
2018-03-22T09:14:52.142Z,14.40
2018-03-22T09:17:21.151Z,14.23
2018-03-22T09:19:49.489Z,13.73
2018-03-22T09:22:18.492Z,14.00
2018-03-22T09:24:46.823Z,12.77
2018-03-22T09:27:15.302Z,14.00
2018-03-22T09:29:43.585Z,13.33
2018-03-22T09:32:12.003Z,12.40
2018-03-22T09:34:40.376Z,11.53
2018-03-22T09:37:09.481Z,11.27
2018-03-22T09:39:37.757Z,11.33
2018-03-22T09:42:06.997Z,11.63
2018-03-22T09:44:35.301Z,11.37
2018-03-22T09:47:03.901Z,12.50
2018-03-22T09:49:32.706Z,12.43
2018-03-22T09:52:01.188Z,12.53
2018-03-22T09:54:29.556Z,11.43
2018-03-22T09:56:58.007Z,11.23
2018-03-22T09:59:27.020Z,11.63
2018-03-22T10:01:56.144Z,11.80
2018-03-22T10:04:25.232Z,11.90
2018-03-22T10:06:53.781Z,12.53
2018-03-22T10:09:22.186Z,11.77
2018-03-22T10:11:50.474Z,11.67
2018-03-22T10:14:19.504Z,11.83
2018-03-22T10:16:48.499Z,12.77
2018-03-22T10:19:16.838Z,13.30
2018-03-22T10:21:45.061Z,13.03
2018-03-22T10:24:13.275Z,13.63
2018-03-22T10:26:41.528Z,15.07
2018-03-22T10:29:09.724Z,14.90
2018-03-22T10:31:38.803Z,15.60
2018-03-22T10:34:07.151Z,15.73
2018-03-22T10:36:36.195Z,16.93
2018-03-22T10:39:04.506Z,16.17
2018-03-22T10:41:33.508Z,15.00
2018-03-22T10:44:02.528Z,14.93
2018-03-22T10:46:31.601Z,15.70
2018-03-22T10:49:00.614Z,16.03
2018-03-22T10:51:29.621Z,14.97
2018-03-22T10:53:58.601Z,14.50
2018-03-22T10:56:26.797Z,15.20
2018-03-22T10:58:55.007Z,15.83
2018-03-22T11:01:28.823Z,16.10
2018-03-22T11:03:58.605Z,14.90
2018-03-22T11:06:26.799Z,15.67
2018-03-22T11:08:55.108Z,15.37
2018-03-22T11:11:23.509Z,14.80
2018-03-22T11:13:51.963Z,16.70
2018-03-22T11:16:21.038Z,16.03
2018-03-22T11:18:49.372Z,15.30
2018-03-22T11:21:17.799Z,15.83
2018-03-22T11:23:46.100Z,14.43
2018-03-22T11:26:15.213Z,14.77
2018-03-22T11:28:44.262Z,15.63
2018-03-22T11:31:12.595Z,14.80
2018-03-22T11:33:41.054Z,14.77
2018-03-22T11:36:09.286Z,15.27
2018-03-22T11:38:37.638Z,15.17
2018-03-22T11:41:06.766Z,16.60
2018-03-22T11:43:35.096Z,15.73
2018-03-22T11:46:04.799Z,15.30
2018-03-22T11:48:33.234Z,16.40
2018-03-22T11:51:01.488Z,14.83
2018-03-22T11:53:30.775Z,15.93
2018-03-22T11:55:59.059Z,15.43
2018-03-22T11:58:28.093Z,15.30
2018-03-22T12:00:57.173Z,15.80
2018-03-22T12:03:25.456Z,15.97
2018-03-22T12:05:53.732Z,16.80
2018-03-22T12:08:22.756Z,17.17
2018-03-22T12:10:51.052Z,17.60
2018-03-22T12:13:19.311Z,17.57
2018-03-22T12:15:47.668Z,17.87
2018-03-22T12:18:15.907Z,18.63
2018-03-22T12:20:44.998Z,18.03
2018-03-22T12:23:14.141Z,17.93
2018-03-22T12:25:42.652Z,19.10
2018-03-22T12:28:10.889Z,20.00
2018-03-22T12:30:39.193Z,20.10
2018-03-22T12:33:08.285Z,20.83
2018-03-22T12:35:37.013Z,20.23
2018-03-22T12:38:06.271Z,21.50
2018-03-22T12:40:34.564Z,18.37
2018-03-22T12:43:02.799Z,19.30
2018-03-22T12:45:31.427Z,19.47
2018-03-22T12:47:59.695Z,19.03
2018-03-22T12:50:28.261Z,19.10
2018-03-22T12:52:57.298Z,18.77
2018-03-22T12:55:25.569Z,20.53
2018-03-22T12:57:53.797Z,19.10
2018-03-22T13:00:22.123Z,17.13
2018-03-22T13:02:50.392Z,19.40
2018-03-22T13:05:18.703Z,19.87
2018-03-22T13:07:47.713Z,17.33
2018-03-22T13:10:16.019Z,18.40
2018-03-22T13:12:44.378Z,20.27
2018-03-22T13:15:12.628Z,19.47
2018-03-22T13:17:41.071Z,19.20
2018-03-22T13:20:09.294Z,17.13
2018-03-22T13:22:38.368Z,17.43
2018-03-22T13:25:07.481Z,17.57
2018-03-22T13:27:36.562Z,19.07
2018-03-22T13:30:05.634Z,18.87
2018-03-22T13:32:33.999Z,17.80
2018-03-22T13:35:02.717Z,19.20
2018-03-22T13:37:31.192Z,18.50
2018-03-22T13:40:00.286Z,20.27
2018-03-22T13:42:28.645Z,19.30
2018-03-22T13:44:57.047Z,20.87
2018-03-22T13:47:25.288Z,20.27
2018-03-22T13:49:54.826Z,20.27
2018-03-22T13:52:23.878Z,19.43
2018-03-22T13:54:52.244Z,19.90
2018-03-22T13:57:21.269Z,21.30
2018-03-22T13:59:49.674Z,21.50
2018-03-22T14:02:18.717Z,21.60
2018-03-22T14:04:47.728Z,21.03
2018-03-22T14:07:16.056Z,21.30
2018-03-22T14:09:44.533Z,19.57
2018-03-22T14:12:12.833Z,20.83
2018-03-22T14:14:41.879Z,21.23
2018-03-22T14:17:10.151Z,21.03
2018-03-22T14:19:38.405Z,20.77
2018-03-22T14:22:07.565Z,21.27
2018-03-22T14:24:35.833Z,21.03
2018-03-22T14:27:04.887Z,20.67
2018-03-22T14:29:33.157Z,21.17
2018-03-22T14:32:01.417Z,20.97
2018-03-22T14:34:30.471Z,20.17
2018-03-22T14:37:00.237Z,19.60
2018-03-22T14:39:29.365Z,21.17
2018-03-22T14:41:58.549Z,20.07
2018-03-22T14:44:26.861Z,19.63
2018-03-22T14:46:55.223Z,21.03
2018-03-22T14:49:23.449Z,19.33
2018-03-22T14:51:52.602Z,19.33
2018-03-22T14:54:20.869Z,19.23
2018-03-22T14:56:49.084Z,20.13
2018-03-22T14:59:18.112Z,19.57
2018-03-22T15:01:47.102Z,19.90
2018-03-22T15:04:16.122Z,18.37
2018-03-22T15:06:44.344Z,18.70
2018-03-22T15:09:12.598Z,18.20
2018-03-22T15:11:42.655Z,17.57
2018-03-22T15:14:12.112Z,18.83
2018-03-22T15:16:41.952Z,18.50
2018-03-22T15:19:10.518Z,17.50
2018-03-22T15:21:38.826Z,18.20
2018-03-22T15:24:07.151Z,17.20
2018-03-22T15:26:35.406Z,17.63
2018-03-22T15:29:04.500Z,16.97
2018-03-22T15:31:33.028Z,18.67
2018-03-22T15:34:02.263Z,18.43
2018-03-22T15:36:30.508Z,19.83
2018-03-22T15:38:58.709Z,19.67
2018-03-22T15:41:27.022Z,19.33
2018-03-22T15:43:56.052Z,19.63
2018-03-22T15:46:24.319Z,19.10
2018-03-22T15:48:52.591Z,19.37
2018-03-22T15:51:20.840Z,18.97
2018-03-22T15:53:49.140Z,18.10
2018-03-22T15:56:17.514Z,18.90
2018-03-22T15:58:45.838Z,18.70
2018-03-22T16:01:14.216Z,19.53
2018-03-22T16:03:43.140Z,19.33
2018-03-22T16:06:12.225Z,19.67
2018-03-22T16:08:40.570Z,19.63
2018-03-22T16:11:08.955Z,20.27
2018-03-22T16:13:37.279Z,19.93
2018-03-22T16:16:06.232Z,19.83
2018-03-22T16:18:34.624Z,21.13
2018-03-22T16:21:02.990Z,21.10
2018-03-22T16:23:32.192Z,21.23
2018-03-22T16:26:00.562Z,21.00
2018-03-22T16:28:28.948Z,20.27
2018-03-22T16:30:57.167Z,20.50
2018-03-22T16:33:26.250Z,21.80
2018-03-22T16:36:03.194Z,20.07
2018-03-22T16:38:31.686Z,21.20
2018-03-22T16:41:00.072Z,21.00
2018-03-22T16:43:28.479Z,19.70
2018-03-22T16:45:57.566Z,19.90
2018-03-22T16:48:27.458Z,19.80
2018-03-22T16:50:55.757Z,20.43
2018-03-22T16:53:24.082Z,19.07
2018-03-22T16:55:52.489Z,19.97
2018-03-22T16:58:21.699Z,19.93
2018-03-22T17:00:50.082Z,19.53
2018-03-22T17:03:18.428Z,19.03
2018-03-22T17:05:46.728Z,18.57
2018-03-22T17:08:15.112Z,18.00
2018-03-22T17:10:43.489Z,18.63
2018-03-22T17:13:11.756Z,17.60
2018-03-22T17:15:40.058Z,18.63
2018-03-22T17:18:08.522Z,17.10
2018-03-22T17:20:36.763Z,17.90
2018-03-22T17:23:05.128Z,18.60
2018-03-22T17:25:33.397Z,17.97
2018-03-22T17:28:01.715Z,18.03
2018-03-22T17:30:30.004Z,18.97
2018-03-22T17:32:58.279Z,19.80
2018-03-22T17:35:26.615Z,18.77
2018-03-22T17:37:55.636Z,17.97
2018-03-22T17:40:23.898Z,18.33
2018-03-22T17:42:52.920Z,19.33
2018-03-22T17:45:21.204Z,19.60
2018-03-22T17:47:49.610Z,18.23
2018-03-22T17:50:17.880Z,19.00
2018-03-22T17:52:46.243Z,17.33
2018-03-22T17:55:14.479Z,16.60
2018-03-22T17:57:43.679Z,21.90
2018-03-22T18:00:12.721Z,20.70
2018-03-22T18:02:41.056Z,28.13
2018-03-22T18:05:10.033Z,28.57
2018-03-22T18:07:40.042Z,27.03
2018-03-22T18:10:08.401Z,16.73
2018-03-22T18:12:36.733Z,22.57
2018-03-22T18:15:05.755Z,25.53
2018-03-22T18:17:34.016Z,30.93
2018-03-22T18:20:02.251Z,37.50
2018-03-22T18:22:31.275Z,23.87
2018-03-22T18:25:00.274Z,22.13
2018-03-22T18:27:29.281Z,23.80
2018-03-22T18:29:57.625Z,19.90
2018-03-22T18:32:26.777Z,21.77
2018-03-22T18:34:55.052Z,19.43
2018-03-22T18:37:23.791Z,22.50
2018-03-22T18:39:52.839Z,25.83
2018-03-22T18:42:21.485Z,24.67
2018-03-22T18:44:50.231Z,24.03
2018-03-22T18:47:18.604Z,24.57
2018-03-22T18:49:48.724Z,21.33
2018-03-22T18:52:16.996Z,19.73
2018-03-22T18:54:45.302Z,20.27
2018-03-22T18:57:13.573Z,19.03
2018-03-22T18:59:41.882Z,19.50
2018-03-22T19:02:11.250Z,18.40
2018-03-22T19:04:40.329Z,18.73
2018-03-22T19:07:09.206Z,18.73
2018-03-22T19:09:37.714Z,17.30
2018-03-22T19:12:06.068Z,18.67
2018-03-22T19:14:34.408Z,20.57
2018-03-22T19:17:03.409Z,23.70
2018-03-22T19:19:32.656Z,23.33
2018-03-22T19:22:00.898Z,22.90
2018-03-22T19:24:29.901Z,22.60
2018-03-22T19:26:58.154Z,23.87
2018-03-22T19:29:27.159Z,24.33
2018-03-22T19:31:55.541Z,23.70
2018-03-22T19:34:23.877Z,22.13
2018-03-22T19:36:52.880Z,18.63
2018-03-22T19:39:21.249Z,17.90
2018-03-22T19:41:49.616Z,19.17
2018-03-22T19:44:17.883Z,20.27
2018-03-22T19:46:46.233Z,20.27
2018-03-22T19:49:15.575Z,20.27
2018-03-22T19:51:44.239Z,21.90
2018-03-22T19:54:12.600Z,20.93
2018-03-22T19:59:15.661Z,19.47
2018-03-22T20:01:43.955Z,19.43
2018-03-22T20:04:13.432Z,16.67
2018-03-22T20:06:41.804Z,17.37
2018-03-22T20:09:12.327Z,13.93
2018-03-22T20:11:40.592Z,11.17
2018-03-22T20:14:08.872Z,12.53
2018-03-22T20:19:37.295Z,7.93
2018-03-22T20:22:05.656Z,7.10
2018-03-22T20:24:34.058Z,6.67
2018-03-22T20:27:02.325Z,5.80
2018-03-22T20:29:30.609Z,6.30
2018-03-22T20:31:59.804Z,5.63
2018-03-22T20:34:28.951Z,5.83
2018-03-22T20:36:57.255Z,5.43
2018-03-22T20:39:25.621Z,6.20
2018-03-22T20:41:53.873Z,5.93
2018-03-22T20:44:22.191Z,5.90
2018-03-22T20:46:51.338Z,5.90
2018-03-22T20:49:19.674Z,7.20
2018-03-22T20:51:48.001Z,6.57
2018-03-22T20:54:17.476Z,6.47
2018-03-22T20:56:45.803Z,6.30
2018-03-22T20:59:14.310Z,6.50
2018-03-22T21:01:42.614Z,6.37
2018-03-22T21:04:10.934Z,6.53
2018-03-22T21:06:39.971Z,6.10
2018-03-22T21:09:08.365Z,6.30
2018-03-22T21:11:36.746Z,6.30
2018-03-22T21:14:05.035Z,6.13
2018-03-22T21:16:33.712Z,6.37
2018-03-22T21:19:01.962Z,5.90
2018-03-22T21:21:30.300Z,5.70
2018-03-22T21:23:58.646Z,6.03
2018-03-22T21:26:26.868Z,6.47
2018-03-22T21:28:56.670Z,6.70
2018-03-22T21:31:26.628Z,6.33
2018-03-22T21:33:56.577Z,6.90
2018-03-22T21:36:25.156Z,6.77
2018-03-22T21:38:56.434Z,6.10
2018-03-22T21:41:25.494Z,5.93
2018-03-22T21:44:05.565Z,6.93
2018-03-22T21:46:34.244Z,5.87
2018-03-22T21:49:02.532Z,5.63
2018-03-22T21:51:30.824Z,5.87
2018-03-22T21:53:59.853Z,5.57
2018-03-22T21:56:29.001Z,4.83
2018-03-22T21:58:57.430Z,5.50
2018-03-22T22:01:25.873Z,5.87
2018-03-22T22:03:54.539Z,5.37
2018-03-22T22:06:22.871Z,5.30
2018-03-22T22:08:51.953Z,5.33
2018-03-22T22:11:20.297Z,7.00
2018-03-22T22:13:48.573Z,5.40
2018-03-22T22:16:16.825Z,5.03
2018-03-22T22:18:45.412Z,5.20
2018-03-22T22:21:14.267Z,4.83
2018-03-22T22:23:43.335Z,5.70
2018-03-22T22:26:12.515Z,5.73
2018-03-22T22:28:40.901Z,5.60
2018-03-22T22:31:09.159Z,5.73
2018-03-22T22:33:37.583Z,5.53
2018-03-22T22:36:06.767Z,4.70
2018-03-22T22:38:35.138Z,5.27
2018-03-22T22:41:03.520Z,5.03
2018-03-22T22:43:31.998Z,4.97
2018-03-22T22:46:00.490Z,4.60
2018-03-22T22:48:28.863Z,5.33
2018-03-22T22:50:57.128Z,4.90
2018-03-22T22:53:25.431Z,5.00
2018-03-22T22:55:53.740Z,4.53
2018-03-22T22:58:23.698Z,4.60
2018-03-22T23:00:52.916Z,5.03
2018-03-22T23:03:21.235Z,4.93
2018-03-22T23:05:49.668Z,4.50
2018-03-22T23:08:17.960Z,4.60
2018-03-22T23:10:46.315Z,4.90
2018-03-22T23:13:14.596Z,4.50
2018-03-22T23:15:43.118Z,5.63
2018-03-22T23:18:12.142Z,5.13
2018-03-22T23:20:40.886Z,4.90
2018-03-22T23:23:09.186Z,5.20
2018-03-22T23:25:38.190Z,4.93
2018-03-22T23:28:07.228Z,4.27
2018-03-22T23:30:35.552Z,5.17
2018-03-22T23:33:03.931Z,4.13
2018-03-22T23:35:32.228Z,4.67
2018-03-22T23:38:01.478Z,4.40
2018-03-22T23:40:29.725Z,4.67
2018-03-22T23:42:58.754Z,4.30
2018-03-22T23:45:27.445Z,4.23
2018-03-22T23:47:55.707Z,4.27
2018-03-22T23:50:24.864Z,4.53
2018-03-22T23:52:54.412Z,4.40
2018-03-22T23:55:22.793Z,4.10
2018-03-22T23:57:51.092Z,4.63
